sensor_id;sensor_type;location;lat;lon;timestamp;pressure;altitude;pressure_sealevel;temperature;humidity
2036;BME280;23642;42.658;23.350;2023-10-31T00:00:21;50622.13;;;-146.31;100.00
2036;BME280;23642;42.658;23.350;2023-10-31T00:02:48;50622.13;;;-146.31;100.00
2036;BME280;23642;42.658;23.350;2023-10-31T00:05:15;50609.75;;;-146.31;100.00
2036;BME280;23642;42.658;23.350;2023-10-31T00:07:42;50578.81;;;-146.31;100.00
2036;BME280;23642;42.658;23.350;2023-10-31T00:10:10;50615.94;;;-146.31;100.00
2036;BME280;23642;42.658;23.350;2023-10-31T00:12:39;50622.13;;;-146.31;100.00
2036;BME280;23642;42.658;23.350;2023-10-31T00:15:06;50556.13;;;-146.31;100.00
2036;BME280;23642;42.658;23.350;2023-10-31T00:17:33;50535.50;;;-146.31;100.00
2036;BME280;23642;42.658;23.350;2023-10-31T00:20:00;50512.81;;;-146.31;100.00
2036;BME280;23642;42.658;23.350;2023-10-31T00:22:27;50434.44;;;-146.31;100.00
2036;BME280;23642;42.658;23.350;2023-10-31T00:24:54;50539.63;;;-146.31;100.00
2036;BME280;23642;42.658;23.350;2023-10-31T00:27:23;50488.06;;;-146.31;100.00
2036;BME280;23642;42.658;23.350;2023-10-31T00:29:49;50461.25;;;-146.31;100.00
2036;BME280;23642;42.658;23.350;2023-10-31T00:32:16;50432.38;;;-146.31;100.00
2036;BME280;23642;42.658;23.350;2023-10-31T00:34:43;50366.38;;;-146.31;100.00
2036;BME280;23642;42.658;23.350;2023-10-31T00:37:11;50281.81;;;-146.31;100.00
2036;BME280;23642;42.658;23.350;2023-10-31T00:39:39;50250.88;;;-146.31;100.00
2036;BME280;23642;42.658;23.350;2023-10-31T00:42:06;50203.44;;;-146.31;100.00
2036;BME280;23642;42.658;23.350;2023-10-31T00:44:35;50277.69;;;-146.31;100.00
2036;BME280;23642;42.658;23.350;2023-10-31T00:47:02;50197.25;;;-146.31;100.00
2036;BME280;23642;42.658;23.350;2023-10-31T00:49:32;50125.09;;;-146.31;100.00
2036;BME280;23642;42.658;23.350;2023-10-31T00:51:59;50044.66;;;-146.31;100.00
2036;BME280;23642;42.658;23.350;2023-10-31T00:54:26;49908.56;;;-146.31;100.00
2036;BME280;23642;42.658;23.350;2023-10-31T00:56:52;49830.19;;;-146.31;100.00
2036;BME280;23642;42.658;23.350;2023-10-31T00:59:19;49718.84;;;-146.31;100.00
2036;BME280;23642;42.658;23.350;2023-10-31T01:01:48;49648.75;;;-146.31;100.00
2036;BME280;23642;42.658;23.350;2023-10-31T01:04:15;49560.09;;;-146.31;100.00
2036;BME280;23642;42.658;23.350;2023-10-31T01:06:42;49514.72;;;-146.31;100.00
2036;BME280;23642;42.658;23.350;2023-10-31T01:09:09;49413.69;;;-146.31;100.00
2036;BME280;23642;42.658;23.350;2023-10-31T01:11:36;49411.63;;;-146.31;100.00
2036;BME280;23642;42.658;23.350;2023-10-31T01:14:03;49285.88;;;-146.31;100.00
2036;BME280;23642;42.658;23.350;2023-10-31T01:16:30;49199.28;;;-146.31;100.00
2036;BME280;23642;42.658;23.350;2023-10-31T01:18:58;49180.72;;;-146.31;100.00
2036;BME280;23642;42.658;23.350;2023-10-31T01:21:25;49118.88;;;-146.31;100.00
2036;BME280;23642;42.658;23.350;2023-10-31T01:23:52;49036.41;;;-146.31;100.00
2036;BME280;23642;42.658;23.350;2023-10-31T01:26:19;48918.91;;;-146.31;100.00
2036;BME280;23642;42.658;23.350;2023-10-31T01:28:46;48871.50;;;-146.31;100.00
2036;BME280;23642;42.658;23.350;2023-10-31T01:31:13;48830.28;;;-146.31;100.00
2036;BME280;23642;42.658;23.350;2023-10-31T01:33:40;48754.00;;;-146.31;100.00
2036;BME280;23642;42.658;23.350;2023-10-31T01:36:12;48683.91;;;-146.31;100.00
2036;BME280;23642;42.658;23.350;2023-10-31T01:38:40;48659.19;;;-146.31;100.00
2036;BME280;23642;42.658;23.350;2023-10-31T01:41:07;48568.47;;;-146.31;100.00
2036;BME280;23642;42.658;23.350;2023-10-31T01:43:35;48506.66;;;-146.31;100.00
2036;BME280;23642;42.658;23.350;2023-10-31T01:46:04;48385.03;;;-146.31;100.00
2036;BME280;23642;42.658;23.350;2023-10-31T01:48:32;48251.06;;;-146.31;100.00
2036;BME280;23642;42.658;23.350;2023-10-31T01:51:02;48164.50;;;-146.31;100.00
2036;BME280;23642;42.658;23.350;2023-10-31T01:53:31;48133.59;;;-146.31;100.00
2036;BME280;23642;42.658;23.350;2023-10-31T01:56:00;48125.34;;;-146.31;100.00
2036;BME280;23642;42.658;23.350;2023-10-31T01:58:30;48148.00;;;-146.31;100.00
2036;BME280;23642;42.658;23.350;2023-10-31T02:00:57;48139.78;;;-146.31;100.00
2036;BME280;23642;42.658;23.350;2023-10-31T02:03:25;48065.56;;;-146.31;100.00
2036;BME280;23642;42.658;23.350;2023-10-31T02:05:52;48016.13;;;-146.31;100.00
2036;BME280;23642;42.658;23.350;2023-10-31T02:08:20;47995.50;;;-146.31;100.00
2036;BME280;23642;42.658;23.350;2023-10-31T02:10:49;48024.34;;;-146.31;100.00
2036;BME280;23642;42.658;23.350;2023-10-31T02:13:17;48009.94;;;-146.31;100.00
2036;BME280;23642;42.658;23.350;2023-10-31T02:15:45;48071.75;;;-146.31;100.00
2036;BME280;23642;42.658;23.350;2023-10-31T02:18:12;47987.25;;;-146.31;100.00
2036;BME280;23642;42.658;23.350;2023-10-31T02:20:39;47952.22;;;-146.31;100.00
2036;BME280;23642;42.658;23.350;2023-10-31T02:23:08;47989.31;;;-146.31;100.00
2036;BME280;23642;42.658;23.350;2023-10-31T02:25:37;48141.84;;;-146.31;100.00
2036;BME280;23642;42.658;23.350;2023-10-31T02:28:04;48156.25;;;-146.31;100.00
2036;BME280;23642;42.658;23.350;2023-10-31T02:30:31;48164.50;;;-146.31;100.00
2036;BME280;23642;42.658;23.350;2023-10-31T02:32:58;48080.00;;;-146.31;100.00
2036;BME280;23642;42.658;23.350;2023-10-31T02:35:25;48067.63;;;-146.31;100.00
2036;BME280;23642;42.658;23.350;2023-10-31T02:37:52;48232.50;;;-146.31;100.00
2036;BME280;23642;42.658;23.350;2023-10-31T02:40:20;48162.44;;;-146.31;100.00
2036;BME280;23642;42.658;23.350;2023-10-31T02:42:47;48131.53;;;-146.31;100.00
2036;BME280;23642;42.658;23.350;2023-10-31T02:45:14;48098.56;;;-146.31;100.00
2036;BME280;23642;42.658;23.350;2023-10-31T02:47:41;48123.28;;;-146.31;100.00
2036;BME280;23642;42.658;23.350;2023-10-31T02:50:09;47991.38;;;-146.31;100.00
2036;BME280;23642;42.658;23.350;2023-10-31T02:52:36;47875.97;;;-146.31;100.00
2036;BME280;23642;42.658;23.350;2023-10-31T02:55:03;47779.13;;;-146.31;100.00
2036;BME280;23642;42.658;23.350;2023-10-31T02:57:32;47739.97;;;-146.31;100.00
2036;BME280;23642;42.658;23.350;2023-10-31T02:59:59;47643.09;;;-146.31;100.00
2036;BME280;23642;42.658;23.350;2023-10-31T03:02:27;47525.66;;;-146.31;100.00
2036;BME280;23642;42.658;23.350;2023-10-31T03:04:54;47694.63;;;-146.31;100.00
2036;BME280;23642;42.658;23.350;2023-10-31T03:07:21;47991.38;;;-146.31;100.00
2036;BME280;23642;42.658;23.350;2023-10-31T03:09:47;48032.59;;;-146.31;100.00
2036;BME280;23642;42.658;23.350;2023-10-31T03:12:14;48088.25;;;-146.31;100.00
2036;BME280;23642;42.658;23.350;2023-10-31T03:14:43;48098.56;;;-146.31;100.00
2036;BME280;23642;42.658;23.350;2023-10-31T03:17:09;48028.47;;;-146.31;100.00
2036;BME280;23642;42.658;23.350;2023-10-31T03:19:36;47875.97;;;-146.31;100.00
2036;BME280;23642;42.658;23.350;2023-10-31T03:22:03;47733.78;;;-146.31;100.00
2036;BME280;23642;42.658;23.350;2023-10-31T03:24:33;47546.25;;;-146.31;100.00
2036;BME280;23642;42.658;23.350;2023-10-31T03:27:03;47397.91;;;-146.31;100.00
2036;BME280;23642;42.658;23.350;2023-10-31T03:29:32;47449.41;;;-146.31;100.00
2036;BME280;23642;42.658;23.350;2023-10-31T03:32:00;47319.59;;;-146.31;100.00
2036;BME280;23642;42.658;23.350;2023-10-31T03:34:27;47123.84;;;-146.31;100.00
2036;BME280;23642;42.658;23.350;2023-10-31T03:36:54;46971.41;;;-146.31;100.00
2036;BME280;23642;42.658;23.350;2023-10-31T03:39:20;46851.91;;;-146.31;100.00
2036;BME280;23642;42.658;23.350;2023-10-31T03:41:47;46676.78;;;-146.31;100.00
2036;BME280;23642;42.658;23.350;2023-10-31T03:44:14;46610.88;;;-146.31;100.00
2036;BME280;23642;42.658;23.350;2023-10-31T03:46:41;46485.19;;;-146.31;100.00
2036;BME280;23642;42.658;23.350;2023-10-31T03:49:11;46394.56;;;-146.31;100.00
2036;BME280;23642;42.658;23.350;2023-10-31T03:51:38;46297.75;;;-146.31;100.00
2036;BME280;23642;42.658;23.350;2023-10-31T03:54:08;46194.75;;;-146.31;100.00
2036;BME280;23642;42.658;23.350;2023-10-31T03:56:38;46017.63;;;-146.31;100.00
2036;BME280;23642;42.658;23.350;2023-10-31T03:59:05;45984.66;;;-146.31;100.00
2036;BME280;23642;42.658;23.350;2023-10-31T04:01:32;46017.63;;;-146.31;100.00
2036;BME280;23642;42.658;23.350;2023-10-31T04:04:01;45922.88;;;-146.31;100.00
2036;BME280;23642;42.658;23.350;2023-10-31T04:06:29;45852.84;;;-146.31;100.00
2036;BME280;23642;42.658;23.350;2023-10-31T04:08:56;45817.84;;;-146.31;100.00
2036;BME280;23642;42.658;23.350;2023-10-31T04:11:23;45770.47;;;-146.31;100.00
2036;BME280;23642;42.658;23.350;2023-10-31T04:13:50;45731.34;;;-146.31;100.00
2036;BME280;23642;42.658;23.350;2023-10-31T04:16:17;45745.75;;;-146.31;100.00
2036;BME280;23642;42.658;23.350;2023-10-31T04:18:44;45784.88;;;-146.31;100.00
2036;BME280;23642;42.658;23.350;2023-10-31T04:21:11;45751.94;;;-146.31;100.00
2036;BME280;23642;42.658;23.350;2023-10-31T04:23:41;45772.53;;;-146.31;100.00
2036;BME280;23642;42.658;23.350;2023-10-31T04:26:08;45801.34;;;-146.31;100.00
2036;BME280;23642;42.658;23.350;2023-10-31T04:28:35;45675.72;;;-146.31;100.00
2036;BME280;23642;42.658;23.350;2023-10-31T04:31:02;45766.34;;;-146.31;100.00
2036;BME280;23642;42.658;23.350;2023-10-31T04:33:32;45710.75;;;-146.31;100.00
2036;BME280;23642;42.658;23.350;2023-10-31T04:35:58;45513.03;;;-146.31;100.00
2036;BME280;23642;42.658;23.350;2023-10-31T04:38:27;45436.84;;;-146.31;100.00
2036;BME280;23642;42.658;23.350;2023-10-31T04:40:56;45420.38;;;-146.31;100.00
2036;BME280;23642;42.658;23.350;2023-10-31T04:43:28;45265.91;;;-146.31;100.00
2036;BME280;23642;42.658;23.350;2023-10-31T04:45:55;45290.63;;;-146.31;100.00
2036;BME280;23642;42.658;23.350;2023-10-31T04:48:22;45245.31;;;-146.31;100.00
2036;BME280;23642;42.658;23.350;2023-10-31T04:50:49;45181.50;;;-146.31;100.00
2036;BME280;23642;42.658;23.350;2023-10-31T04:53:15;45109.41;;;-146.31;100.00
2036;BME280;23642;42.658;23.350;2023-10-31T04:55:42;45045.59;;;-146.31;100.00
2036;BME280;23642;42.658;23.350;2023-10-31T04:58:10;44924.09;;;-146.31;100.00
2036;BME280;23642;42.658;23.350;2023-10-31T05:00:37;44872.63;;;-146.31;100.00
2036;BME280;23642;42.658;23.350;2023-10-31T05:03:04;44742.91;;;-146.31;100.00
2036;BME280;23642;42.658;23.350;2023-10-31T05:05:32;44604.97;;;-146.31;100.00
2036;BME280;23642;42.658;23.350;2023-10-31T05:07:58;44415.56;;;-146.31;100.00
2036;BME280;23642;42.658;23.350;2023-10-31T05:10:25;44294.09;;;-146.31;100.00
2036;BME280;23642;42.658;23.350;2023-10-31T05:12:52;44125.28;;;-146.31;100.00
2036;BME280;23642;42.658;23.350;2023-10-31T05:15:20;44036.78;;;-146.31;100.00
2036;BME280;23642;42.658;23.350;2023-10-31T05:17:47;43896.81;;;-146.31;100.00
2036;BME280;23642;42.658;23.350;2023-10-31T05:20:14;43818.59;;;-146.31;100.00
2036;BME280;23642;42.658;23.350;2023-10-31T05:22:41;43693.03;;;-146.31;100.00
2036;BME280;23642;42.658;23.350;2023-10-31T05:25:08;43625.09;;;-146.31;100.00
2036;BME280;23642;42.658;23.350;2023-10-31T05:27:35;43653.94;;;-146.31;100.00
2036;BME280;23642;42.658;23.350;2023-10-31T05:30:04;43746.53;;;-146.31;100.00
2036;BME280;23642;42.658;23.350;2023-10-31T05:32:33;43736.25;;;-146.31;100.00
2036;BME280;23642;42.658;23.350;2023-10-31T05:35:00;43935.91;;;-146.31;100.00
2036;BME280;23642;42.658;23.350;2023-10-31T05:37:27;44147.94;;;-146.31;100.00
2036;BME280;23642;42.658;23.350;2023-10-31T05:39:54;44353.81;;;-146.31;100.00
2036;BME280;23642;42.658;23.350;2023-10-31T05:42:21;44658.50;;;-146.31;100.00
2036;BME280;23642;42.658;23.350;2023-10-31T05:44:48;45074.41;;;-146.31;100.00
2036;BME280;23642;42.658;23.350;2023-10-31T05:47:15;45162.97;;;-146.31;100.00
2036;BME280;23642;42.658;23.350;2023-10-31T05:49:44;45815.78;;;-146.31;100.00
2036;BME280;23642;42.658;23.350;2023-10-31T05:52:11;45997.03;;;-146.31;100.00
2036;BME280;23642;42.658;23.350;2023-10-31T05:54:38;46017.63;;;-146.31;100.00
2036;BME280;23642;42.658;23.350;2023-10-31T05:57:08;45883.75;;;-146.31;100.00
2036;BME280;23642;42.658;23.350;2023-10-31T05:59:35;46017.63;;;-146.31;100.00
2036;BME280;23642;42.658;23.350;2023-10-31T06:02:01;46363.66;;;-146.31;100.00
2036;BME280;23642;42.658;23.350;2023-10-31T06:04:28;46528.47;;;-146.31;100.00
2036;BME280;23642;42.658;23.350;2023-10-31T06:06:57;46614.97;;;-146.31;100.00
2036;BME280;23642;42.658;23.350;2023-10-31T06:09:24;46697.38;;;-146.31;100.00
2036;BME280;23642;42.658;23.350;2023-10-31T06:11:53;46847.78;;;-146.31;100.00
2036;BME280;23642;42.658;23.350;2023-10-31T06:14:20;47047.63;;;-146.31;100.00
2036;BME280;23642;42.658;23.350;2023-10-31T06:16:47;47113.56;;;-146.31;100.00
2036;BME280;23642;42.658;23.350;2023-10-31T06:19:14;47189.78;;;-146.31;100.00
2036;BME280;23642;42.658;23.350;2023-10-31T06:21:44;47319.59;;;-146.31;100.00
2036;BME280;23642;42.658;23.350;2023-10-31T06:24:13;47379.34;;;-146.31;100.00
2036;BME280;23642;42.658;23.350;2023-10-31T06:26:40;47511.22;;;-146.31;100.00
2036;BME280;23642;42.658;23.350;2023-10-31T06:29:09;47597.78;;;-146.31;100.00
2036;BME280;23642;42.658;23.350;2023-10-31T06:31:36;47583.34;;;-146.31;100.00
2036;BME280;23642;42.658;23.350;2023-10-31T06:34:03;47694.63;;;-146.31;100.00
2036;BME280;23642;42.658;23.350;2023-10-31T06:36:30;47789.41;;;-146.31;100.00
2036;BME280;23642;42.658;23.350;2023-10-31T06:38:57;47950.16;;;-146.31;100.00
2036;BME280;23642;42.658;23.350;2023-10-31T06:41:25;47970.78;;;-146.31;100.00
2036;BME280;23642;42.658;23.350;2023-10-31T06:43:54;48038.78;;;-146.31;100.00
2036;BME280;23642;42.658;23.350;2023-10-31T06:46:24;48143.91;;;-146.31;99.82
2036;BME280;23642;42.658;23.350;2023-10-31T06:48:54;48378.84;;;-146.31;96.73
2036;BME280;23642;42.658;23.350;2023-10-31T06:51:21;48475.72;;;-146.31;97.53
2036;BME280;23642;42.658;23.350;2023-10-31T06:53:48;48523.13;;;-146.31;97.78
2036;BME280;23642;42.658;23.350;2023-10-31T06:56:14;48504.59;;;-146.31;97.74
2036;BME280;23642;42.658;23.350;2023-10-31T06:58:42;48545.81;;;-146.31;97.39
2036;BME280;23642;42.658;23.350;2023-10-31T07:01:09;48599.41;;;-146.31;96.89
2036;BME280;23642;42.658;23.350;2023-10-31T07:03:36;48685.97;;;-146.31;95.41
2036;BME280;23642;42.658;23.350;2023-10-31T07:06:03;48712.78;;;-146.31;94.96
2036;BME280;23642;42.658;23.350;2023-10-31T07:08:30;48793.16;;;-146.31;94.47
2036;BME280;23642;42.658;23.350;2023-10-31T07:10:57;48811.72;;;-146.31;95.07
2036;BME280;23642;42.658;23.350;2023-10-31T07:13:24;48852.94;;;-146.31;93.79
2036;BME280;23642;42.658;23.350;2023-10-31T07:15:52;48894.19;;;-146.31;93.96
2036;BME280;23642;42.658;23.350;2023-10-31T07:18:19;48982.81;;;-146.31;92.04
2036;BME280;23642;42.658;23.350;2023-10-31T07:20:45;49015.81;;;-146.31;91.56
2036;BME280;23642;42.658;23.350;2023-10-31T07:23:12;49069.41;;;-146.31;91.51
2036;BME280;23642;42.658;23.350;2023-10-31T07:25:41;49096.19;;;-146.31;91.40
2036;BME280;23642;42.658;23.350;2023-10-31T07:28:08;49156.00;;;-146.31;90.85
2036;BME280;23642;42.658;23.350;2023-10-31T07:30:35;49172.47;;;-146.31;90.27
2036;BME280;23642;42.658;23.350;2023-10-31T07:33:04;49244.63;;;-146.31;89.03
2036;BME280;23642;42.658;23.350;2023-10-31T07:35:31;49308.56;;;-146.31;89.49
2036;BME280;23642;42.658;23.350;2023-10-31T07:37:58;49329.16;;;-146.31;89.06
2036;BME280;23642;42.658;23.350;2023-10-31T07:40:24;49370.41;;;-146.31;89.34
2036;BME280;23642;42.658;23.350;2023-10-31T07:42:51;49362.16;;;-146.31;89.34
2036;BME280;23642;42.658;23.350;2023-10-31T07:45:18;49364.22;;;-146.31;88.62
2036;BME280;23642;42.658;23.350;2023-10-31T07:47:45;49399.28;;;-146.31;86.57
2036;BME280;23642;42.658;23.350;2023-10-31T07:50:13;49450.81;;;-146.31;87.37
2036;BME280;23642;42.658;23.350;2023-10-31T07:52:40;49514.72;;;-146.31;86.69
2036;BME280;23642;42.658;23.350;2023-10-31T07:55:06;49529.16;;;-146.31;86.71
2036;BME280;23642;42.658;23.350;2023-10-31T07:57:33;49504.41;;;-146.31;86.21
2036;BME280;23642;42.658;23.350;2023-10-31T08:00:00;49605.44;;;-146.31;84.32
2036;BME280;23642;42.658;23.350;2023-10-31T08:02:46;49654.94;;;-146.31;84.53
2036;BME280;23642;42.658;23.350;2023-10-31T08:05:14;49673.50;;;-146.31;84.87
2036;BME280;23642;42.658;23.350;2023-10-31T08:07:41;49663.19;;;-146.31;85.37
2036;BME280;23642;42.658;23.350;2023-10-31T08:10:10;49722.97;;;-146.31;83.22
2036;BME280;23642;42.658;23.350;2023-10-31T08:12:37;49727.09;;;-146.31;82.54
2036;BME280;23642;42.658;23.350;2023-10-31T08:15:05;49797.22;;;-146.31;82.50
2036;BME280;23642;42.658;23.350;2023-10-31T08:17:32;49805.47;;;-146.31;81.25
2036;BME280;23642;42.658;23.350;2023-10-31T08:19:58;49844.63;;;-146.31;81.46
2036;BME280;23642;42.658;23.350;2023-10-31T08:22:27;49871.44;;;-146.31;82.04
2036;BME280;23642;42.658;23.350;2023-10-31T08:24:53;49904.44;;;-146.31;80.69
2036;BME280;23642;42.658;23.350;2023-10-31T08:27:20;49958.06;;;-146.31;80.96
2036;BME280;23642;42.658;23.350;2023-10-31T08:29:47;49937.44;;;-146.31;80.30
2036;BME280;23642;42.658;23.350;2023-10-31T08:32:15;49947.75;;;-146.31;79.45
2036;BME280;23642;42.658;23.350;2023-10-31T08:34:42;50007.53;;;-146.31;77.92
2036;BME280;23642;42.658;23.350;2023-10-31T08:37:11;50044.66;;;-146.31;78.97
2036;BME280;23642;42.658;23.350;2023-10-31T08:39:42;50048.78;;;-146.31;77.89
2036;BME280;23642;42.658;23.350;2023-10-31T08:42:09;50102.41;;;-146.31;78.00
2036;BME280;23642;42.658;23.350;2023-10-31T08:44:36;50129.22;;;-146.31;77.99
2036;BME280;23642;42.658;23.350;2023-10-31T08:47:04;50164.25;;;-146.31;78.42
2036;BME280;23642;42.658;23.350;2023-10-31T08:49:32;50129.22;;;-146.31;78.27
2036;BME280;23642;42.658;23.350;2023-10-31T08:51:58;50139.53;;;-146.31;78.20
2036;BME280;23642;42.658;23.350;2023-10-31T08:54:27;50182.81;;;-146.31;76.57
2036;BME280;23642;42.658;23.350;2023-10-31T08:56:55;50211.69;;;-146.31;77.07
2036;BME280;23642;42.658;23.350;2023-10-31T08:59:22;50226.13;;;-146.31;74.55
2036;BME280;23642;42.658;23.350;2023-10-31T09:01:48;50269.44;;;-146.31;74.97
2036;BME280;23642;42.658;23.350;2023-10-31T09:04:17;50308.63;;;-146.31;74.17
2036;BME280;23642;42.658;23.350;2023-10-31T09:06:44;50329.25;;;-146.31;74.56
2036;BME280;23642;42.658;23.350;2023-10-31T09:09:12;50380.81;;;-146.31;71.88
2036;BME280;23642;42.658;23.350;2023-10-31T09:11:40;50403.50;;;-146.31;72.16
2036;BME280;23642;42.658;23.350;2023-10-31T09:14:08;50426.19;;;-146.31;72.21
2036;BME280;23642;42.658;23.350;2023-10-31T09:16:35;50455.06;;;-146.31;70.99
2036;BME280;23642;42.658;23.350;2023-10-31T09:19:04;50477.75;;;-146.31;70.58
2036;BME280;23642;42.658;23.350;2023-10-31T09:21:32;50521.06;;;-146.31;70.75
2036;BME280;23642;42.658;23.350;2023-10-31T09:23:59;50543.75;;;-146.31;70.55
2036;BME280;23642;42.658;23.350;2023-10-31T09:26:36;50601.50;;;-146.31;69.93
2036;BME280;23642;42.658;23.350;2023-10-31T09:29:03;50618.00;;;-146.31;69.70
2036;BME280;23642;42.658;23.350;2023-10-31T09:31:32;50638.63;;;-146.31;69.39
2036;BME280;23642;42.658;23.350;2023-10-31T09:33:59;50618.00;;;-146.31;68.05
2036;BME280;23642;42.658;23.350;2023-10-31T09:36:25;50671.63;;;-146.31;66.36
2036;BME280;23642;42.658;23.350;2023-10-31T09:38:52;50741.75;;;-146.31;67.05
2036;BME280;23642;42.658;23.350;2023-10-31T09:41:21;50727.31;;;-146.31;68.46
2036;BME280;23642;42.658;23.350;2023-10-31T09:43:48;50717.00;;;-146.31;67.19
2036;BME280;23642;42.658;23.350;2023-10-31T09:46:15;50739.69;;;-146.31;66.27
2036;BME280;23642;42.658;23.350;2023-10-31T09:48:46;50766.50;;;-146.31;65.49
2036;BME280;23642;42.658;23.350;2023-10-31T09:51:15;50774.75;;;-146.31;66.03
2036;BME280;23642;42.658;23.350;2023-10-31T09:53:44;50787.13;;;-146.31;66.15
2036;BME280;23642;42.658;23.350;2023-10-31T09:56:11;50803.63;;;-146.31;66.60
2036;BME280;23642;42.658;23.350;2023-10-31T09:58:38;50795.38;;;-146.31;66.48
2036;BME280;23642;42.658;23.350;2023-10-31T10:01:07;50826.31;;;-146.31;64.67
2036;BME280;23642;42.658;23.350;2023-10-31T10:03:33;50857.25;;;-146.31;61.89
2036;BME280;23642;42.658;23.350;2023-10-31T10:06:05;50935.63;;;-146.31;57.30
2036;BME280;23642;42.658;23.350;2023-10-31T10:08:31;50917.06;;;-146.31;56.88
2036;BME280;23642;42.658;23.350;2023-10-31T10:10:58;50939.75;;;-146.31;54.13
2036;BME280;23642;42.658;23.350;2023-10-31T10:13:28;50941.81;;;-146.31;53.63
2036;BME280;23642;42.658;23.350;2023-10-31T10:15:55;50937.69;;;-146.31;52.80
2036;BME280;23642;42.658;23.350;2023-10-31T10:18:25;50919.13;;;-146.31;51.35
2036;BME280;23642;42.658;23.350;2023-10-31T10:20:56;50978.94;;;-146.31;50.83
2036;BME280;23642;42.658;23.350;2023-10-31T10:23:25;51047.00;;;-146.31;49.82
2036;BME280;23642;42.658;23.350;2023-10-31T10:25:52;51065.56;;;-146.31;49.66
2036;BME280;23642;42.658;23.350;2023-10-31T10:28:19;51075.88;;;-146.31;49.83
2036;BME280;23642;42.658;23.350;2023-10-31T10:30:47;51125.41;;;-146.31;49.79
2036;BME280;23642;42.658;23.350;2023-10-31T10:33:14;51168.72;;;-146.31;49.22
2036;BME280;23642;42.658;23.350;2023-10-31T10:35:42;51249.16;;;-146.31;49.38
2036;BME280;23642;42.658;23.350;2023-10-31T10:38:11;51259.47;;;-146.31;49.04
2036;BME280;23642;42.658;23.350;2023-10-31T10:40:41;51300.75;;;-146.31;48.57
2036;BME280;23642;42.658;23.350;2023-10-31T10:43:12;51385.31;;;-146.31;47.46
2036;BME280;23642;42.658;23.350;2023-10-31T10:45:42;51476.09;;;-146.31;46.66
2036;BME280;23642;42.658;23.350;2023-10-31T10:48:15;51657.66;;;-146.31;45.10
2036;BME280;23642;42.658;23.350;2023-10-31T10:50:45;51884.59;;;-146.31;42.64
2036;BME280;23642;42.658;23.350;2023-10-31T10:53:22;52107.44;;;-146.31;40.99
2036;BME280;23642;42.658;23.350;2023-10-31T10:56:16;52173.47;;;-146.31;42.93
2036;BME280;23642;42.658;23.350;2023-10-31T10:58:51;52119.81;;;-146.31;43.62
2036;BME280;23642;42.658;23.350;2023-10-31T11:01:19;52090.94;;;-146.31;43.24
2036;BME280;23642;42.658;23.350;2023-10-31T11:03:50;52243.63;;;-146.31;43.51
2036;BME280;23642;42.658;23.350;2023-10-31T11:06:18;52245.69;;;-146.31;41.93
2036;BME280;23642;42.658;23.350;2023-10-31T11:09:03;52330.28;;;-146.31;41.26
2036;BME280;23642;42.658;23.350;2023-10-31T11:11:37;52313.78;;;-146.31;40.32
2036;BME280;23642;42.658;23.350;2023-10-31T11:14:15;52353.00;;;-146.31;40.33
2036;BME280;23642;42.658;23.350;2023-10-31T11:16:47;52452.03;;;-146.31;40.59
2036;BME280;23642;42.658;23.350;2023-10-31T11:19:16;52520.16;;;-146.31;40.87
2036;BME280;23642;42.658;23.350;2023-10-31T11:21:59;52577.94;;;-146.31;41.03
2036;BME280;23642;42.658;23.350;2023-10-31T11:24:27;52635.72;;;-146.31;40.49
2036;BME280;23642;42.658;23.350;2023-10-31T11:27:00;52716.19;;;-146.31;40.54
2036;BME280;23642;42.658;23.350;2023-10-31T11:29:27;52730.66;;;-146.31;39.83
2036;BME280;23642;42.658;23.350;2023-10-31T11:31:55;52792.56;;;-146.31;39.75
2036;BME280;23642;42.658;23.350;2023-10-31T11:34:23;52765.72;;;-146.31;39.89
2036;BME280;23642;42.658;23.350;2023-10-31T11:36:50;52716.19;;;-146.31;40.11
2036;BME280;23642;42.658;23.350;2023-10-31T11:39:19;52681.13;;;-146.31;39.74
2036;BME280;23642;42.658;23.350;2023-10-31T11:41:49;52635.72;;;-146.31;39.84
2036;BME280;23642;42.658;23.350;2023-10-31T11:44:22;52701.75;;;-146.31;40.15
2036;BME280;23642;42.658;23.350;2023-10-31T11:46:52;52703.81;;;-146.31;40.37
2036;BME280;23642;42.658;23.350;2023-10-31T11:49:45;52672.84;;;-146.31;39.55
2036;BME280;23642;42.658;23.350;2023-10-31T11:52:15;52656.34;;;-146.31;39.46
2036;BME280;23642;42.658;23.350;2023-10-31T11:54:42;52697.63;;;-146.31;40.51
2036;BME280;23642;42.658;23.350;2023-10-31T11:57:09;52751.28;;;-146.31;40.11
2036;BME280;23642;42.658;23.350;2023-10-31T11:59:38;52771.91;;;-146.31;40.07
2036;BME280;23642;42.658;23.350;2023-10-31T12:02:13;52807.00;;;-146.31;40.08
2036;BME280;23642;42.658;23.350;2023-10-31T12:04:44;52833.84;;;-146.31;41.09
2036;BME280;23642;42.658;23.350;2023-10-31T12:07:11;52848.28;;;-146.31;41.37
2036;BME280;23642;42.658;23.350;2023-10-31T12:09:45;52908.13;;;-146.31;41.64
2036;BME280;23642;42.658;23.350;2023-10-31T12:12:13;52887.50;;;-146.31;41.58
2036;BME280;23642;42.658;23.350;2023-10-31T12:14:41;52850.34;;;-146.31;42.04
2036;BME280;23642;42.658;23.350;2023-10-31T12:17:12;52866.84;;;-146.31;42.01
2036;BME280;23642;42.658;23.350;2023-10-31T12:19:39;52947.34;;;-146.31;41.88
2036;BME280;23642;42.658;23.350;2023-10-31T12:22:12;53011.34;;;-146.31;41.79
2036;BME280;23642;42.658;23.350;2023-10-31T12:24:40;52955.59;;;-146.31;41.42
2036;BME280;23642;42.658;23.350;2023-10-31T12:27:07;52934.97;;;-146.31;40.60
2036;BME280;23642;42.658;23.350;2023-10-31T12:29:33;53048.47;;;-146.31;39.91
2036;BME280;23642;42.658;23.350;2023-10-31T12:32:02;53048.47;;;-146.31;40.06
2036;BME280;23642;42.658;23.350;2023-10-31T12:34:29;53007.22;;;-146.31;39.74
2036;BME280;23642;42.658;23.350;2023-10-31T12:37:00;52957.66;;;-146.31;39.23
2036;BME280;23642;42.658;23.350;2023-10-31T12:39:34;53013.41;;;-146.31;39.62